Time;durP1;ratioP1;P1;durP2;ratioP2;P2;SDS_P1;SDS_P2;PMS_P1;PMS_P2;Temp;Humidity;BMP_temperature;BMP_pressure;BME280_temperature;BME280_humidity;BME280_pressure;Samples;Min_cycle;Max_cycle;Signal;HPM_P1;HPM_P2
2022/07/26 00:02:04;;;;;;;12.77;2.50;;;;;;;18.20;100.00;101276.13;5056728;28;20028;-51
2022/07/26 00:04:30;;;;;;;10.23;2.42;;;;;;;18.20;100.00;101278.81;5056851;28;20032;-47
2022/07/26 00:06:55;;;;;;;14.55;2.47;;;;;;;18.21;100.00;101277.78;5056744;28;20938;-50
2022/07/26 00:09:20;;;;;;;11.50;2.63;;;;;;;18.22;100.00;101270.50;5038261;28;20036;-48
2022/07/26 00:11:46;;;;;;;16.75;2.30;;;;;;;18.18;100.00;101277.38;5057138;28;20351;-46
2022/07/26 00:14:11;;;;;;;17.70;2.60;;;;;;;18.16;100.00;101291.09;5055155;28;20063;-48
2022/07/26 00:16:37;;;;;;;21.27;3.17;;;;;;;18.15;100.00;101283.16;5057144;28;20490;-48
2022/07/26 00:19:06;;;;;;;15.82;3.22;;;;;;;18.15;100.00;101285.88;5050751;28;20561;-49
2022/07/26 00:21:31;;;;;;;15.95;3.03;;;;;;;18.10;100.00;101283.75;5057419;28;20390;-48
2022/07/26 00:23:57;;;;;;;17.27;2.53;;;;;;;18.09;100.00;101284.78;5055787;28;20028;-48
2022/07/26 00:26:22;;;;;;;13.32;2.70;;;;;;;18.09;100.00;101282.09;5057109;28;20572;-48
2022/07/26 00:28:47;;;;;;;19.63;3.33;;;;;;;18.07;100.00;101276.91;5055116;28;20151;-48
2022/07/26 00:31:13;;;;;;;11.90;2.83;;;;;;;18.05;100.00;101289.75;5056894;28;20059;-48
2022/07/26 00:33:39;;;;;;;16.10;3.30;;;;;;;18.06;100.00;101290.63;5054595;28;20397;-49
2022/07/26 00:36:04;;;;;;;16.95;3.05;;;;;;;18.03;100.00;101291.84;5055748;28;20111;-50
2022/07/26 00:38:30;;;;;;;12.50;2.95;;;;;;;18.00;100.00;101294.94;5056212;28;20028;-49
2022/07/26 00:40:55;;;;;;;15.88;3.10;;;;;;;17.99;100.00;101298.69;5055678;28;20036;-51
2022/07/26 00:43:20;;;;;;;11.75;3.10;;;;;;;17.98;100.00;101293.47;5056383;28;20017;-52
2022/07/26 00:45:46;;;;;;;10.32;3.40;;;;;;;17.97;100.00;101300.72;5054516;28;20080;-51
2022/07/26 00:48:11;;;;;;;10.90;2.83;;;;;;;17.99;100.00;101300.53;5056642;28;20035;-51
2022/07/26 00:50:36;;;;;;;16.13;3.95;;;;;;;18.02;100.00;101300.13;5054607;28;20043;-50
2022/07/26 00:53:02;;;;;;;16.98;3.38;;;;;;;17.98;100.00;101290.78;5057176;28;20012;-49
2022/07/26 00:55:28;;;;;;;15.35;3.58;;;;;;;17.95;100.00;101293.88;5041807;28;20025;-53
2022/07/26 00:57:53;;;;;;;17.10;3.90;;;;;;;17.93;100.00;101296.78;5056422;28;20063;-48
2022/07/26 01:00:22;;;;;;;16.05;3.70;;;;;;;17.90;100.00;101289.06;5054137;28;20027;-50
2022/07/26 01:02:48;;;;;;;17.33;3.78;;;;;;;17.87;100.00;101293.00;5056468;28;20017;-51
2022/07/26 01:05:14;;;;;;;17.45;4.05;;;;;;;17.83;100.00;101294.38;5054453;28;20649;-53
2022/07/26 01:07:40;;;;;;;16.40;4.18;;;;;;;17.85;100.00;101294.19;5055993;28;20694;-51
2022/07/26 01:10:11;;;;;;;21.38;4.00;;;;;;;17.86;100.00;101294.03;5054633;28;20347;-47
2022/07/26 01:12:45;;;;;;;18.63;3.63;;;;;;;17.84;100.00;101290.66;5053814;28;20028;-50
2022/07/26 01:15:13;;;;;;;26.73;3.60;;;;;;;17.82;100.00;101290.03;5053830;28;20485;-48
2022/07/26 01:17:39;;;;;;;23.52;3.97;;;;;;;17.82;100.00;101287.31;5055501;28;20055;-47
2022/07/26 01:20:07;;;;;;;18.58;3.97;;;;;;;17.83;100.00;101280.88;5054215;28;20452;-50
2022/07/26 01:22:33;;;;;;;21.50;4.32;;;;;;;17.82;100.00;101286.47;5054781;28;20417;-48
2022/07/26 01:24:58;;;;;;;24.52;4.55;;;;;;;17.86;100.00;101294.03;5070962;28;20092;-47
2022/07/26 01:27:23;;;;;;;19.30;4.28;;;;;;;17.87;100.00;101294.84;5055343;28;20667;-49
2022/07/26 01:29:50;;;;;;;23.48;4.30;;;;;;;17.89;100.00;101290.94;5053951;28;20036;-48
2022/07/26 01:32:16;;;;;;;17.20;4.22;;;;;;;17.88;100.00;101291.94;5055302;28;20477;-49
2022/07/26 01:34:42;;;;;;;19.88;3.95;;;;;;;17.87;100.00;101290.31;5053814;28;20020;-49
2022/07/26 01:37:08;;;;;;;20.17;4.13;;;;;;;17.86;100.00;101293.16;5055234;28;20659;-49
2022/07/26 01:39:33;;;;;;;16.60;4.20;;;;;;;17.87;100.00;101284.91;5053012;28;20662;-50
2022/07/26 01:41:58;;;;;;;18.15;4.35;;;;;;;17.85;100.00;101281.53;5055559;28;20020;-49
2022/07/26 01:44:24;;;;;;;18.73;3.60;;;;;;;17.84;100.00;101277.16;5051700;28;20020;-48
2022/07/26 01:46:49;;;;;;;18.13;4.35;;;;;;;17.79;100.00;101286.91;5055417;28;20424;-47
2022/07/26 01:49:14;;;;;;;17.10;3.90;;;;;;;17.80;100.00;101283.97;5053763;28;20044;-47
2022/07/26 01:51:40;;;;;;;20.08;4.43;;;;;;;17.82;100.00;101290.03;5055584;28;20092;-47
2022/07/26 01:54:05;;;;;;;24.52;4.15;;;;;;;17.75;100.00;101285.59;5054297;28;20031;-49
2022/07/26 01:56:31;;;;;;;18.98;4.68;;;;;;;17.71;100.00;101293.28;5054458;28;20614;-48
2022/07/26 01:58:56;;;;;;;21.00;4.13;;;;;;;17.64;100.00;101303.19;5052865;28;20906;-48
2022/07/26 02:01:22;;;;;;;19.25;4.15;;;;;;;17.67;100.00;101292.00;5054491;28;20162;-49
2022/07/26 02:03:47;;;;;;;12.75;3.97;;;;;;;17.63;100.00;101293.41;5053771;28;20035;-48
2022/07/26 02:06:12;;;;;;;15.95;4.13;;;;;;;17.60;100.00;101291.97;5054509;28;20386;-47
2022/07/26 02:08:37;;;;;;;18.52;4.10;;;;;;;17.62;100.00;101299.88;5054763;28;20044;-47
2022/07/26 02:11:03;;;;;;;19.52;4.20;;;;;;;17.60;100.00;101305.47;5054551;28;20029;-49
2022/07/26 02:13:34;;;;;;;29.70;4.85;;;;;;;17.61;100.00;101306.28;5053714;28;20534;-47
2022/07/26 02:16:00;;;;;;;16.75;4.47;;;;;;;17.63;100.00;101302.34;5054051;28;20078;-47
2022/07/26 02:18:27;;;;;;;21.80;4.70;;;;;;;17.60;100.00;101297.38;5052169;28;20020;-49
2022/07/26 02:20:53;;;;;;;19.20;4.47;;;;;;;17.56;100.00;101292.53;5050414;28;20079;-50
2022/07/26 02:23:20;;;;;;;21.27;4.85;;;;;;;17.57;100.00;101295.03;5054764;28;20495;-49
2022/07/26 02:25:46;;;;;;;26.77;4.97;;;;;;;17.55;100.00;101294.41;5053903;28;20085;-48
2022/07/26 02:28:12;;;;;;;25.73;4.95;;;;;;;17.57;100.00;101299.63;5053946;28;20470;-51
2022/07/26 02:30:37;;;;;;;28.85;5.50;;;;;;;17.55;100.00;101299.81;5052652;28;20043;-47
2022/07/26 02:33:03;;;;;;;20.10;4.80;;;;;;;17.50;100.00;101303.09;5055189;28;20024;-48
2022/07/26 02:35:30;;;;;;;21.75;4.93;;;;;;;17.54;100.00;101308.94;5053053;28;20020;-49
2022/07/26 02:38:00;;;;;;;21.23;5.15;;;;;;;17.52;100.00;101321.81;5055010;28;20024;-50
2022/07/26 02:40:25;;;;;;;23.55;5.03;;;;;;;17.52;100.00;101316.41;5053838;28;20124;-52
2022/07/26 02:42:51;;;;;;;23.50;4.93;;;;;;;17.48;100.00;101313.25;5053478;28;20078;-52
2022/07/26 02:45:16;;;;;;;24.90;5.20;;;;;;;17.44;100.00;101311.97;5052277;28;20028;-49
2022/07/26 02:47:48;;;;;;;22.20;5.32;;;;;;;17.43;100.00;101321.13;5055109;28;20411;-48
2022/07/26 02:50:18;;;;;;;28.15;5.35;;;;;;;17.44;100.00;101317.38;5053225;28;20340;-48
2022/07/26 02:52:46;;;;;;;19.52;5.57;;;;;;;17.45;100.00;101312.81;5054149;28;20032;-48
2022/07/26 02:55:13;;;;;;;27.98;5.85;;;;;;;17.41;100.00;101322.31;5053104;28;20043;-50
2022/07/26 02:57:38;;;;;;;25.17;5.60;;;;;;;17.43;100.00;101325.66;5054147;28;20052;-48
2022/07/26 03:00:04;;;;;;;22.70;5.63;;;;;;;17.37;100.00;101321.06;5052687;28;20097;-49
2022/07/26 03:02:29;;;;;;;34.90;6.03;;;;;;;17.42;100.00;101329.41;5054374;28;20336;-51
2022/07/26 03:04:55;;;;;;;24.92;5.93;;;;;;;17.45;100.00;101329.03;5053370;28;20035;-48
2022/07/26 03:07:20;;;;;;;23.77;5.80;;;;;;;17.44;100.00;101327.34;5053783;28;20194;-49
2022/07/26 03:09:45;;;;;;;27.75;6.00;;;;;;;17.41;100.00;101342.06;5045546;28;20028;-48
2022/07/26 03:12:11;;;;;;;26.73;5.63;;;;;;;17.37;100.00;101326.47;5055284;28;20021;-50
2022/07/26 03:14:36;;;;;;;26.25;6.05;;;;;;;17.35;100.00;101334.75;5055988;28;20356;-50
2022/07/26 03:17:01;;;;;;;25.90;6.10;;;;;;;17.32;100.00;101333.25;5058766;28;20052;-50
2022/07/26 03:19:27;;;;;;;25.67;6.00;;;;;;;17.30;100.00;101340.72;5056274;28;20036;-50
2022/07/26 03:21:52;;;;;;;29.85;6.03;;;;;;;17.31;100.00;101336.16;5058499;28;20898;-49
2022/07/26 03:24:17;;;;;;;19.67;6.00;;;;;;;17.27;100.00;101335.72;5057193;28;20206;-48
2022/07/26 03:26:42;;;;;;;25.63;6.68;;;;;;;17.27;100.00;101332.19;5057868;28;20093;-50
2022/07/26 03:29:08;;;;;;;35.30;6.60;;;;;;;17.24;100.00;101344.19;5054796;28;20031;-48
2022/07/26 03:31:33;;;;;;;32.00;7.20;;;;;;;17.24;100.00;101348.75;5057857;28;20035;-52
2022/07/26 03:33:58;;;;;;;27.52;6.32;;;;;;;17.18;100.00;101350.38;5056782;28;20031;-50
2022/07/26 03:36:24;;;;;;;26.00;6.10;;;;;;;17.12;100.00;101348.44;5057648;28;20025;-52
2022/07/26 03:38:49;;;;;;;24.88;5.93;;;;;;;17.06;100.00;101349.22;5057847;28;20031;-49
2022/07/26 03:41:14;;;;;;;24.05;6.00;;;;;;;17.04;100.00;101351.25;5057215;28;20029;-51
2022/07/26 03:43:40;;;;;;;25.60;6.38;;;;;;;17.06;100.00;101357.31;5055694;28;20024;-51
2022/07/26 03:46:05;;;;;;;23.60;6.22;;;;;;;17.07;100.00;101367.88;5056280;28;20165;-49
2022/07/26 03:48:30;;;;;;;29.05;6.15;;;;;;;17.07;100.00;101364.38;5056300;28;20036;-49
2022/07/26 03:50:56;;;;;;;33.13;6.30;;;;;;;17.07;100.00;101362.50;5057529;28;20161;-51
2022/07/26 03:53:21;;;;;;;23.88;6.13;;;;;;;17.07;100.00;101357.09;5057155;28;20031;-50
2022/07/26 03:58:30;;;;;;;24.85;6.20;;;;;;;17.14;100.00;101355.31;5055639;28;20371;-47
2022/07/26 04:00:56;;;;;;;30.52;5.95;;;;;;;17.15;100.00;101358.84;5056554;28;20462;-50
2022/07/26 04:03:21;;;;;;;33.25;7.22;;;;;;;17.10;100.00;101372.91;5056114;28;20023;-52
2022/07/26 04:05:47;;;;;;;30.30;6.50;;;;;;;17.10;100.00;101364.00;5057013;28;20074;-49
2022/07/26 04:08:12;;;;;;;24.33;5.82;;;;;;;17.11;100.00;101369.19;5056726;28;20168;-47
2022/07/26 04:10:37;;;;;;;31.48;7.00;;;;;;;17.11;100.00;101371.91;5056369;28;20135;-47
2022/07/26 04:13:02;;;;;;;25.45;6.45;;;;;;;17.15;100.00;101370.47;5057809;28;20012;-50
2022/07/26 04:15:28;;;;;;;33.30;6.82;;;;;;;17.13;100.00;101371.72;5053919;28;20056;-48
2022/07/26 04:17:53;;;;;;;33.58;6.60;;;;;;;17.18;100.00;101373.84;5057447;28;20354;-50
2022/07/26 04:20:18;;;;;;;32.55;6.10;;;;;;;17.21;100.00;101376.13;5054983;28;20394;-48
2022/07/26 04:22:44;;;;;;;29.27;6.28;;;;;;;17.21;100.00;101371.59;5056952;28;20029;-50
2022/07/26 04:25:10;;;;;;;29.10;6.60;;;;;;;17.21;100.00;101371.59;5056908;28;20058;-49
2022/07/26 04:27:36;;;;;;;30.92;6.95;;;;;;;17.22;100.00;101377.81;5056771;28;20514;-48
2022/07/26 04:30:03;;;;;;;24.38;5.68;;;;;;;17.18;100.00;101376.53;5055081;28;20533;-47
2022/07/26 04:32:28;;;;;;;26.48;6.38;;;;;;;17.14;100.00;101385.00;5056072;28;20495;-51
2022/07/26 04:34:54;;;;;;;28.80;6.57;;;;;;;17.13;100.00;101382.50;5055219;28;20016;-48
2022/07/26 04:37:19;;;;;;;23.88;5.78;;;;;;;17.09;100.00;101384.75;5056659;28;20036;-50
2022/07/26 04:39:44;;;;;;;26.38;6.50;;;;;;;17.08;100.00;101384.94;5056752;28;20028;-50
2022/07/26 04:42:10;;;;;;;38.72;6.50;;;;;;;17.06;100.00;101395.09;5056505;28;20024;-49
2022/07/26 04:44:36;;;;;;;28.30;6.20;;;;;;;17.03;100.00;101399.00;5054863;28;20058;-48
2022/07/26 04:47:02;;;;;;;33.03;6.80;;;;;;;17.00;100.00;101396.66;5057040;28;20077;-47
2022/07/26 04:49:27;;;;;;;22.45;6.15;;;;;;;16.99;100.00;101388.75;5054294;28;20499;-49
2022/07/26 04:51:52;;;;;;;26.77;6.50;;;;;;;17.01;100.00;101394.84;5055687;28;20036;-47
2022/07/26 04:54:19;;;;;;;28.70;6.95;;;;;;;16.99;100.00;101403.13;5056247;28;20017;-51
2022/07/26 04:56:46;;;;;;;23.90;6.68;;;;;;;16.98;100.00;101401.44;5056159;28;20025;-46
2022/07/26 04:59:11;;;;;;;29.45;6.57;;;;;;;16.98;100.00;101395.22;5054466;28;20045;-49
2022/07/26 05:01:37;;;;;;;30.23;6.80;;;;;;;17.04;100.00;101397.13;5056258;28;20024;-47
2022/07/26 05:04:02;;;;;;;31.38;7.20;;;;;;;17.06;100.00;101401.31;5055365;28;20048;-49
2022/07/26 05:06:27;;;;;;;31.00;6.90;;;;;;;17.14;100.00;101397.66;5055426;28;20024;-49
2022/07/26 05:08:52;;;;;;;32.58;6.50;;;;;;;17.14;100.00;101403.91;5044852;28;20683;-51
2022/07/26 05:11:18;;;;;;;24.73;6.60;;;;;;;17.19;100.00;101405.19;5056386;28;20036;-48
2022/07/26 05:13:43;;;;;;;27.88;6.88;;;;;;;17.17;100.00;101410.78;5054333;28;20406;-48
2022/07/26 05:16:08;;;;;;;34.05;6.93;;;;;;;17.20;100.00;101418.50;5055783;28;20020;-48
2022/07/26 05:18:34;;;;;;;31.95;7.88;;;;;;;17.23;100.00;101423.50;5054625;28;20403;-48
2022/07/26 05:21:00;;;;;;;24.63;6.45;;;;;;;17.26;100.00;101424.97;5056134;28;20358;-50
2022/07/26 05:23:25;;;;;;;25.42;6.85;;;;;;;17.25;100.00;101429.56;5054840;28;20111;-49
2022/07/26 05:25:51;;;;;;;31.35;7.10;;;;;;;17.26;100.00;101433.06;5054685;28;20115;-51
2022/07/26 05:28:16;;;;;;;38.58;7.00;;;;;;;17.29;100.00;101424.59;5056048;28;20089;-51
2022/07/26 05:30:41;;;;;;;29.67;7.13;;;;;;;17.33;100.00;101423.22;5054223;28;20020;-52
2022/07/26 05:33:07;;;;;;;39.60;8.20;;;;;;;17.37;100.00;101431.75;5053818;28;20050;-49
2022/07/26 05:35:32;;;;;;;34.63;8.32;;;;;;;17.41;100.00;101425.75;5055195;28;20070;-49
2022/07/26 05:37:57;;;;;;;29.10;7.50;;;;;;;17.44;100.00;101427.25;5055159;28;20239;-50
2022/07/26 05:40:23;;;;;;;32.55;7.43;;;;;;;17.47;100.00;101422.31;5055402;28;20032;-50
2022/07/26 05:42:48;;;;;;;29.60;8.10;;;;;;;17.50;100.00;101423.81;5054253;28;20339;-50
2022/07/26 05:45:13;;;;;;;29.75;7.93;;;;;;;17.53;100.00;101421.53;5053086;28;20048;-48
2022/07/26 05:47:39;;;;;;;34.28;7.55;;;;;;;17.59;100.00;101432.59;5055513;28;20044;-47
2022/07/26 05:50:05;;;;;;;31.88;7.32;;;;;;;17.61;100.00;101430.53;5053390;28;20409;-50
2022/07/26 05:52:31;;;;;;;29.20;7.40;;;;;;;17.64;100.00;101430.16;5056176;28;20024;-50
2022/07/26 05:54:56;;;;;;;33.28;7.38;;;;;;;17.66;100.00;101437.03;5054522;28;20024;-49
2022/07/26 05:57:21;;;;;;;28.15;7.07;;;;;;;17.71;100.00;101442.69;5055089;28;20387;-52
2022/07/26 05:59:47;;;;;;;33.25;7.25;;;;;;;17.75;100.00;101439.59;5053267;28;20207;-47
2022/07/26 06:02:12;;;;;;;28.60;7.22;;;;;;;17.75;100.00;101445.81;5054046;28;20027;-47
2022/07/26 06:04:38;;;;;;;31.80;7.10;;;;;;;17.78;100.00;101442.75;5054174;28;20048;-49
2022/07/26 06:07:03;;;;;;;29.77;7.28;;;;;;;17.77;100.00;101426.72;5054854;28;20034;-51
2022/07/26 06:09:28;;;;;;;20.55;6.40;;;;;;;17.83;100.00;101443.00;5055063;28;20383;-48
2022/07/26 06:11:54;;;;;;;21.13;5.65;;;;;;;17.94;100.00;101448.94;5053508;28;20032;-50
2022/07/26 06:14:19;;;;;;;20.58;5.40;;;;;;;18.02;100.00;101455.03;5052867;28;20051;-48
2022/07/26 06:16:46;;;;;;;19.60;5.70;;;;;;;18.16;100.00;101453.28;5055299;28;20494;-48
2022/07/26 06:19:11;;;;;;;20.30;5.47;;;;;;;18.27;100.00;101452.72;5052329;28;20044;-52
2022/07/26 06:21:37;;;;;;;21.92;6.20;;;;;;;18.39;100.00;101457.59;5055005;28;20027;-47
2022/07/26 06:24:02;;;;;;;21.77;5.72;;;;;;;18.47;100.00;101462.03;5054452;28;20035;-50
2022/07/26 06:26:27;;;;;;;19.58;5.40;;;;;;;18.50;100.00;101461.59;5054586;28;20027;-47
2022/07/26 06:28:53;;;;;;;20.90;5.20;;;;;;;18.62;100.00;101462.75;5051403;28;20616;-48
2022/07/26 06:31:18;;;;;;;20.95;5.22;;;;;;;18.77;100.00;101465.31;5053423;28;20021;-51
2022/07/26 06:33:43;;;;;;;21.73;6.22;;;;;;;18.95;100.00;101467.50;5053947;28;20108;-49
2022/07/26 06:36:09;;;;;;;19.30;5.63;;;;;;;18.99;100.00;101469.63;5052863;28;20105;-47
2022/07/26 06:38:34;;;;;;;26.45;6.32;;;;;;;19.23;100.00;101471.97;5054592;28;20028;-52
2022/07/26 06:40:59;;;;;;;22.17;5.70;;;;;;;19.43;100.00;101472.03;5054882;28;20648;-52
2022/07/26 06:43:25;;;;;;;13.82;5.03;;;;;;;19.46;100.00;101477.06;5053496;28;20032;-47
2022/07/26 06:45:50;;;;;;;16.42;5.63;;;;;;;19.39;100.00;101487.88;5053633;28;20024;-47
2022/07/26 06:48:15;;;;;;;21.10;6.35;;;;;;;19.46;100.00;101477.88;5053452;28;20556;-50
2022/07/26 06:50:41;;;;;;;23.52;6.13;;;;;;;19.59;100.00;101478.97;5054326;28;20483;-51
2022/07/26 06:53:06;;;;;;;26.33;5.63;;;;;;;19.63;100.00;101477.50;5053639;28;20391;-51
2022/07/26 06:55:31;;;;;;;22.05;5.22;;;;;;;19.55;100.00;101487.50;5054005;28;20301;-51
2022/07/26 06:57:57;;;;;;;19.23;4.97;;;;;;;19.42;100.00;101500.19;5054437;28;20494;-49
2022/07/26 07:00:22;;;;;;;18.52;4.70;;;;;;;19.30;100.00;101491.81;5052020;28;21068;-49
2022/07/26 07:02:47;;;;;;;16.63;4.50;;;;;;;19.39;100.00;101496.81;5053895;28;20095;-49
2022/07/26 07:05:13;;;;;;;17.55;4.65;;;;;;;19.59;100.00;101487.09;5053759;28;20494;-49
2022/07/26 07:07:38;;;;;;;14.98;4.47;;;;;;;19.80;99.98;101499.66;5052684;28;20367;-48
2022/07/26 07:10:05;;;;;;;19.15;4.53;;;;;;;19.66;99.97;101490.66;5044921;28;20078;-50
2022/07/26 07:12:30;;;;;;;14.57;4.47;;;;;;;19.62;100.00;101498.38;5053944;28;20071;-50
2022/07/26 07:14:56;;;;;;;17.23;4.65;;;;;;;19.73;100.00;101494.22;5052777;28;20020;-48
2022/07/26 07:17:21;;;;;;;14.23;4.38;;;;;;;19.81;100.00;101504.06;5053698;28;20044;-48
2022/07/26 07:19:47;;;;;;;13.95;3.83;;;;;;;19.89;99.42;101499.28;5053195;28;20435;-48
2022/07/26 07:22:12;;;;;;;13.38;4.28;;;;;;;19.97;98.99;101498.22;5053665;28;20028;-49
2022/07/26 07:24:38;;;;;;;14.63;4.13;;;;;;;20.01;99.46;101506.78;5053582;28;20423;-49
2022/07/26 07:27:04;;;;;;;20.08;4.45;;;;;;;19.97;98.31;101502.81;5052807;28;20582;-51
2022/07/26 07:29:29;;;;;;;17.85;4.65;;;;;;;20.03;97.17;101497.41;5051563;28;20059;-50
2022/07/26 07:31:54;;;;;;;13.82;3.80;;;;;;;20.04;97.53;101509.91;5054393;28;20023;-48
2022/07/26 07:34:21;;;;;;;21.55;4.80;;;;;;;19.91;99.19;101510.75;5052008;28;20035;-47
2022/07/26 07:36:51;;;;;;;14.70;4.00;;;;;;;19.70;99.96;101517.13;5054530;28;20354;-49
2022/07/26 07:39:17;;;;;;;19.08;4.95;;;;;;;19.51;100.00;101520.63;5053279;28;20165;-48
2022/07/26 07:41:46;;;;;;;18.08;3.45;;;;;;;19.39;100.00;101513.09;5052365;28;20111;-49
2022/07/26 07:44:12;;;;;;;9.32;1.40;;;;;;;19.23;99.33;101531.56;5050576;28;20104;-49
2022/07/26 07:46:38;;;;;;;4.25;1.10;;;;;;;19.17;99.37;101533.22;5054125;28;20875;-49
2022/07/26 07:49:03;;;;;;;3.10;1.00;;;;;;;19.19;99.52;101539.25;5052848;28;20077;-50
2022/07/26 07:51:28;;;;;;;3.75;0.80;;;;;;;19.20;100.00;101533.63;5053886;28;20024;-47
2022/07/26 07:53:54;;;;;;;2.17;0.70;;;;;;;19.28;100.00;101535.34;5053501;28;20037;-51
2022/07/26 07:56:20;;;;;;;3.25;0.77;;;;;;;19.31;100.00;101529.50;5054038;28;20014;-48
2022/07/26 07:58:45;;;;;;;2.28;0.68;;;;;;;19.37;100.00;101534.13;5056237;28;20055;-48
2022/07/26 08:01:10;;;;;;;1.67;0.60;;;;;;;19.51;100.00;101539.59;5056498;28;20036;-47
2022/07/26 08:03:36;;;;;;;2.08;0.60;;;;;;;19.53;100.00;101546.47;5055899;28;20443;-51
2022/07/26 08:06:04;;;;;;;1.15;0.50;;;;;;;19.50;100.00;101543.31;5057729;28;20367;-49
2022/07/26 08:08:29;;;;;;;2.63;0.52;;;;;;;19.55;100.00;101544.41;5057566;28;20426;-51
2022/07/26 08:10:55;;;;;;;0.70;0.50;;;;;;;19.42;100.00;101554.38;5057318;28;20021;-48
2022/07/26 08:13:21;;;;;;;1.30;0.70;;;;;;;19.45;100.00;101556.66;5056645;28;20035;-48
2022/07/26 08:15:46;;;;;;;2.47;0.70;;;;;;;19.57;100.00;101555.88;5056434;28;20486;-50
2022/07/26 08:18:11;;;;;;;2.92;1.00;;;;;;;19.55;100.00;101559.81;5055317;28;20044;-46
2022/07/26 08:20:37;;;;;;;4.75;1.05;;;;;;;19.33;100.00;101559.09;5056363;28;20144;-47
2022/07/26 08:23:02;;;;;;;1.35;0.68;;;;;;;19.19;100.00;101571.75;5057570;28;20021;-49
2022/07/26 08:25:28;;;;;;;2.28;0.70;;;;;;;19.06;100.00;101572.53;5056086;28;20052;-48
2022/07/26 08:27:53;;;;;;;4.53;0.90;;;;;;;19.17;100.00;101571.13;5057307;28;20104;-49
2022/07/26 08:30:18;;;;;;;1.25;0.60;;;;;;;19.35;100.00;101571.41;5054102;28;20456;-49
2022/07/26 08:32:44;;;;;;;2.55;0.60;;;;;;;19.49;100.00;101576.91;5056203;28;20470;-51
2022/07/26 08:35:10;;;;;;;4.78;0.90;;;;;;;19.64;100.00;101574.88;5056316;28;20043;-51
2022/07/26 08:37:36;;;;;;;2.45;0.70;;;;;;;19.64;100.00;101579.47;5055674;28;20020;-50
2022/07/26 08:40:01;;;;;;;5.93;1.08;;;;;;;19.47;100.00;101585.22;5057003;28;20025;-50
2022/07/26 08:42:26;;;;;;;4.93;0.90;;;;;;;19.43;100.00;101580.41;5056378;28;20035;-52
2022/07/26 08:44:52;;;;;;;7.75;1.00;;;;;;;19.22;100.00;101586.78;5055191;28;20021;-51
2022/07/26 08:47:22;;;;;;;4.72;1.13;;;;;;;19.38;100.00;101589.97;5056430;28;20093;-51
2022/07/26 08:49:47;;;;;;;7.60;1.50;;;;;;;19.54;100.00;101593.38;5056621;28;20036;-52
2022/07/26 08:52:14;;;;;;;6.63;1.13;;;;;;;19.72;100.00;101596.38;5055829;28;20036;-50
2022/07/26 08:54:48;;;;;;;8.13;1.40;;;;;;;19.98;97.50;101597.50;5055392;28;20372;-52
2022/07/26 08:57:14;;;;;;;7.13;1.10;;;;;;;20.25;96.11;101594.84;5056264;28;20368;-52
2022/07/26 08:59:39;;;;;;;5.97;1.10;;;;;;;20.43;97.69;101592.31;5054800;28;20051;-51
2022/07/26 09:02:07;;;;;;;10.77;1.67;;;;;;;20.60;95.72;101603.59;5055573;28;20064;-51
2022/07/26 09:04:41;;;;;;;9.73;1.50;;;;;;;20.82;93.83;101606.94;5055545;28;20119;-52
2022/07/26 09:07:09;;;;;;;8.23;1.17;;;;;;;21.14;92.77;101600.84;5055778;28;20101;-52
2022/07/26 09:09:55;;;;;;;16.20;1.65;;;;;;;21.46;95.21;101607.22;5045112;28;20025;-52
2022/07/26 09:12:21;;;;;;;16.40;1.50;;;;;;;21.54;90.74;101608.91;5056182;28;20194;-51
2022/07/26 09:14:47;;;;;;;5.97;1.08;;;;;;;21.32;90.32;101613.78;5054188;28;20024;-49
2022/07/26 09:17:15;;;;;;;9.23;1.73;;;;;;;21.08;91.93;101613.41;5055038;28;20412;-52
2022/07/26 09:19:40;;;;;;;8.13;1.40;;;;;;;20.88;92.72;101621.59;5055014;28;20055;-48
2022/07/26 09:22:11;;;;;;;9.48;1.33;;;;;;;20.66;94.12;101620.97;5055967;28;20363;-52
2022/07/26 09:24:36;;;;;;;10.20;1.40;;;;;;;20.53;94.93;101623.66;5054771;28;20020;-51
2022/07/26 09:27:05;;;;;;;6.63;1.27;;;;;;;20.49;94.66;101629.50;5056493;28;20033;-49
2022/07/26 09:29:41;;;;;;;5.45;0.80;;;;;;;20.64;94.37;101629.31;5054801;28;20769;-48
2022/07/26 09:32:19;;;;;;;3.53;1.00;;;;;;;21.31;89.58;101631.94;5054968;28;20103;-50
2022/07/26 09:34:50;;;;;;;3.55;0.80;;;;;;;21.67;89.62;101638.72;5053661;28;20119;-51
2022/07/26 09:37:16;;;;;;;8.27;1.17;;;;;;;21.33;87.11;101634.44;5055438;28;20503;-52
2022/07/26 09:39:59;;;;;;;5.05;0.93;;;;;;;21.48;87.54;101631.50;5055269;28;20029;-51
2022/07/26 09:42:26;;;;;;;3.40;1.00;;;;;;;21.57;85.18;101641.94;5055188;28;20024;-51
2022/07/26 09:44:53;;;;;;;3.17;0.90;;;;;;;22.01;85.00;101635.84;5052222;28;20036;-50
2022/07/26 09:47:19;;;;;;;3.83;0.80;;;;;;;22.58;82.52;101635.94;5054444;28;20095;-53
2022/07/26 09:49:45;;;;;;;2.30;0.73;;;;;;;22.72;79.64;101643.75;5055565;28;20248;-52
2022/07/26 09:52:19;;;;;;;3.00;0.80;;;;;;;22.78;80.37;101638.50;5055037;28;20082;-52
2022/07/26 09:54:48;;;;;;;1.70;0.50;;;;;;;22.49;80.13;101643.53;5054612;28;20562;-51
2022/07/26 09:57:18;;;;;;;2.03;0.60;;;;;;;22.42;79.54;101651.75;5054847;28;20022;-51
2022/07/26 09:59:44;;;;;;;2.78;0.52;;;;;;;22.36;77.89;101655.34;5053439;28;20444;-52
2022/07/26 10:02:09;;;;;;;2.22;0.60;;;;;;;22.39;78.54;101665.78;5053757;28;20471;-53
2022/07/26 10:04:35;;;;;;;3.35;0.50;;;;;;;22.18;77.65;101658.75;5054906;28;20031;-52
2022/07/26 10:07:02;;;;;;;1.83;0.40;;;;;;;21.95;77.84;101665.59;5055628;28;20045;-52
2022/07/26 10:09:35;;;;;;;2.35;0.68;;;;;;;21.84;79.56;101660.84;5053735;28;20603;-51
2022/07/26 10:12:04;;;;;;;2.17;0.60;;;;;;;21.75;80.57;101659.41;5056042;28;20470;-52
2022/07/26 10:14:34;;;;;;;1.30;0.60;;;;;;;22.13;78.55;101664.88;5053152;28;20024;-51
2022/07/26 10:17:01;;;;;;;2.30;0.60;;;;;;;22.78;77.25;101663.00;5055406;28;20028;-49
2022/07/26 10:19:40;;;;;;;2.22;0.60;;;;;;;22.88;75.25;101660.59;5051074;28;20031;-51
2022/07/26 10:22:25;;;;;;;3.35;0.57;;;;;;;23.22;76.01;101658.41;5054885;28;20479;-52
2022/07/26 10:24:52;;;;;;;4.07;0.70;;;;;;;23.15;73.86;101661.22;5040803;28;20590;-51
2022/07/26 10:27:41;;;;;;;3.30;0.80;;;;;;;23.32;73.37;101658.72;5055104;28;20050;-52
2022/07/26 10:30:18;;;;;;;4.40;0.73;;;;;;;22.98;73.26;101668.25;5041019;28;20536;-51
2022/07/26 10:32:49;;;;;;;3.85;0.80;;;;;;;23.12;74.82;101664.38;5054122;28;20112;-48
2022/07/26 10:35:33;;;;;;;6.63;1.40;;;;;;;23.09;72.34;101665.66;5054055;28;20032;-52
2022/07/26 10:38:20;;;;;;;5.72;1.00;;;;;;;23.07;73.70;101662.31;5053449;28;20054;-53
2022/07/26 10:41:00;;;;;;;3.35;0.73;;;;;;;22.97;73.61;101670.16;5054623;28;20121;-52
2022/07/26 10:43:26;;;;;;;5.85;1.08;;;;;;;23.03;75.68;101676.56;5053903;28;20476;-50
2022/07/26 10:46:22;;;;;;;3.08;1.13;;;;;;;22.97;75.59;101667.41;5052803;28;20051;-52
2022/07/26 10:49:07;;;;;;;4.22;0.98;;;;;;;22.71;75.82;101676.66;5053091;28;20233;-51
2022/07/26 10:51:39;;;;;;;4.82;0.95;;;;;;;22.30;77.58;101673.41;5054751;28;20047;-51
2022/07/26 10:54:06;;;;;;;5.97;1.17;;;;;;;22.05;80.16;101686.91;5053783;28;20025;-49
2022/07/26 10:56:31;;;;;;;3.35;1.00;;;;;;;21.65;82.85;101691.66;5054714;28;20558;-49
2022/07/26 10:58:57;;;;;;;8.05;1.17;;;;;;;21.10;87.72;101690.09;5050803;28;20720;-49
2022/07/26 11:01:32;;;;;;;9.30;1.63;;;;;;;20.33;96.26;101695.00;5054449;28;20167;-51
2022/07/26 11:03:57;;;;;;;15.57;2.25;;;;;;;20.04;100.00;101701.59;5052418;28;20600;-48
2022/07/26 11:06:26;;;;;;;12.48;2.25;;;;;;;19.78;100.00;101702.34;5054325;28;20434;-49
2022/07/26 11:08:51;;;;;;;4.57;1.70;;;;;;;19.46;100.00;101713.56;5043761;28;20486;-47
2022/07/26 11:11:31;;;;;;;7.75;1.90;;;;;;;19.35;100.00;101712.28;5054297;28;20024;-48
2022/07/26 11:14:09;;;;;;;8.00;2.05;;;;;;;19.24;100.00;101715.53;5052437;28;20032;-49
2022/07/26 11:16:45;;;;;;;8.00;1.80;;;;;;;19.23;100.00;101726.53;5054645;28;20024;-47